Sunderland, Maryland
Current Conditions -  °F | °C
As of 10:55 PM on Friday 19 Dec 2014 (Local Time) from KADW Reporting Station
Clear Clear  
Wind Chill: 26°   Ceiling: Unl
Heat Index: 33°   Visibility: 10mi
Dew Point: 22°   Wind: 7mph
Humidity: 64%   Direction: 330°NNW
Pressure: 30.25"   Gusts: NA
Location:  38.67°N, 76.6°W
Report Text: KADW 200355Z 33006KT 10SM CLR M00/M06 A3025 RMK AO2A SLP247 T00041058
Loading
Personal Weather Stations






























Interactive Weather Map New forecast layout! Learn more

10-Day Weather Forecast

Advertisements
Track Severe Weather on mobile